Time;durP1;ratioP1;P1;durP2;ratioP2;P2;SDS_P1;SDS_P2;PMS_P1;PMS_P2;Temp;Humidity;BMP_temperature;BMP_pressure;BME280_temperature;BME280_humidity;BME280_pressure;Samples;Min_cycle;Max_cycle;Signal;HPM_P1;HPM_P2
2022/02/12 00:02:30;;;;;;;22.10;12.55;;;1.30;99.90;;;;;;5030715;28;20198;-72
2022/02/12 00:05:17;;;;;;;29.42;13.02;;;1.30;99.90;;;;;;5029747;28;20228;-73
2022/02/12 00:08:04;;;;;;;22.10;12.60;;;1.10;99.90;;;;;;5033760;28;20209;-72
2022/02/12 00:10:49;;;;;;;24.23;12.30;;;1.10;99.90;;;;;;5035533;28;20221;-73
2022/02/12 00:13:36;;;;;;;24.45;12.52;;;1.20;99.90;;;;;;5029014;28;20280;-73
2022/02/12 00:16:22;;;;;;;26.63;12.90;;;1.30;99.90;;;;;;5033788;28;20750;-73
2022/02/12 00:19:08;;;;;;;28.88;13.20;;;1.30;99.90;;;;;;5034435;28;20572;-73
2022/02/12 00:21:53;;;;;;;17.70;12.57;;;1.30;99.90;;;;;;5028709;28;20281;-73
2022/02/12 00:24:39;;;;;;;23.17;12.45;;;1.40;99.90;;;;;;5025230;28;20694;-73
2022/02/12 00:27:24;;;;;;;23.40;11.38;;;1.40;99.90;;;;;;5038508;28;20768;-73
2022/02/12 00:30:12;;;;;;;18.75;9.77;;;1.30;99.90;;;;;;5043701;28;20279;-73
2022/02/12 00:32:58;;;;;;;16.40;9.63;;;1.30;99.90;;;;;;5037451;28;20548;-73
2022/02/12 00:35:43;;;;;;;18.90;8.90;;;1.20;99.90;;;;;;5027012;28;20325;-72
2022/02/12 00:38:29;;;;;;;16.85;9.90;;;1.10;99.90;;;;;;5037868;28;20218;-73
2022/02/12 00:41:14;;;;;;;25.25;10.63;;;1.10;99.90;;;;;;5034612;28;20271;-72
2022/02/12 00:44:00;;;;;;;18.42;11.13;;;1.10;99.90;;;;;;5025191;28;20205;-73
2022/02/12 00:46:47;;;;;;;18.75;10.52;;;1.20;99.90;;;;;;5037574;28;20208;-73
2022/02/12 00:49:33;;;;;;;22.70;11.20;;;1.20;99.90;;;;;;5023426;28;20209;-72
2022/02/12 00:52:18;;;;;;;16.33;10.98;;;1.00;99.90;;;;;;5035552;28;20249;-73
2022/02/12 00:55:04;;;;;;;19.58;11.15;;;0.90;99.90;;;;;;5025907;28;20214;-73
2022/02/12 00:57:50;;;;;;;27.27;13.70;;;0.90;99.90;;;;;;5026436;28;20208;-73
2022/02/12 01:00:36;;;;;;;30.77;13.60;;;0.90;99.90;;;;;;5036849;28;20271;-72
2022/02/12 01:03:23;;;;;;;26.73;14.75;;;0.80;99.90;;;;;;5030972;28;20202;-73
2022/02/12 01:06:09;;;;;;;43.67;13.85;;;0.70;99.90;;;;;;5034269;28;20329;-73
2022/02/12 01:08:55;;;;;;;26.38;15.38;;;0.70;99.90;;;;;;5029298;28;20221;-73
2022/02/12 01:11:40;;;;;;;31.33;15.65;;;0.80;99.90;;;;;;5032327;28;20307;-74
2022/02/12 01:14:26;;;;;;;36.35;16.20;;;0.80;99.90;;;;;;5028623;28;20200;-73
2022/02/12 01:17:12;;;;;;;36.67;15.68;;;0.90;99.90;;;;;;5034657;28;20221;-73
2022/02/12 01:19:59;;;;;;;36.00;16.25;;;0.90;99.90;;;;;;5030324;28;20260;-73
2022/02/12 01:22:47;;;;;;;34.35;13.98;;;0.90;99.90;;;;;;5030735;28;20769;-73
2022/02/12 01:25:34;;;;;;;28.25;12.88;;;1.00;99.90;;;;;;5031232;28;20201;-73
2022/02/12 01:28:20;;;;;;;23.85;12.93;;;0.90;99.90;;;;;;5031116;28;20213;-73
2022/02/12 01:31:06;;;;;;;27.00;12.95;;;0.80;99.90;;;;;;5036618;28;20244;-73
2022/02/12 01:33:51;;;;;;;24.85;12.80;;;0.70;99.90;;;;;;5026255;28;20201;-73
2022/02/12 01:36:38;;;;;;;22.92;11.50;;;0.60;99.90;;;;;;5034155;28;20288;-73
2022/02/12 01:39:24;;;;;;;26.55;12.82;;;0.50;99.90;;;;;;5025966;28;20229;-73
2022/02/12 01:42:09;;;;;;;22.48;12.23;;;0.50;99.90;;;;;;5029162;28;20229;-73
2022/02/12 01:44:55;;;;;;;24.52;14.10;;;0.60;99.90;;;;;;5029437;28;20240;-72
2022/02/12 01:47:41;;;;;;;23.55;12.50;;;0.60;99.90;;;;;;5031001;28;20202;-73
2022/02/12 01:50:27;;;;;;;18.02;11.35;;;0.50;99.90;;;;;;5029894;28;20295;-72
2022/02/12 01:53:14;;;;;;;28.17;11.23;;;0.50;99.90;;;;;;5028528;28;20205;-73
2022/02/12 01:56:00;;;;;;;27.92;13.95;;;0.50;99.90;;;;;;5025876;28;20574;-73
2022/02/12 01:58:45;;;;;;;39.00;17.38;;;0.60;99.90;;;;;;5033241;28;20567;-73
2022/02/12 02:01:30;;;;;;;49.05;20.98;;;0.60;99.90;;;;;;5031434;28;20228;-73
2022/02/12 02:04:17;;;;;;;58.00;17.67;;;0.60;99.90;;;;;;5023738;28;20307;-72
2022/02/12 02:07:02;;;;;;;31.17;19.48;;;0.60;99.90;;;;;;5027308;28;20197;-72
2022/02/12 02:09:51;;;;;;;41.38;17.90;;;0.50;99.90;;;;;;5026844;28;20201;-73
2022/02/12 02:12:37;;;;;;;29.02;16.00;;;0.50;99.90;;;;;;5027538;28;20691;-73
2022/02/12 02:15:23;;;;;;;35.30;17.23;;;0.40;99.90;;;;;;5035479;28;20800;-73
2022/02/12 02:18:09;;;;;;;34.28;18.00;;;0.40;99.90;;;;;;5030432;28;20310;-73
2022/02/12 02:20:55;;;;;;;30.45;17.42;;;0.40;99.90;;;;;;5031242;28;20221;-73
2022/02/12 02:23:42;;;;;;;29.25;15.73;;;0.40;99.90;;;;;;5027024;28;20210;-73
2022/02/12 02:26:28;;;;;;;30.90;16.85;;;0.50;99.90;;;;;;5035515;28;20670;-73
2022/02/12 02:29:14;;;;;;;33.50;14.95;;;0.70;99.90;;;;;;5030888;28;20721;-72
2022/02/12 02:32:00;;;;;;;34.97;16.38;;;0.60;99.90;;;;;;5027694;28;20307;-73
2022/02/12 02:34:50;;;;;;;28.92;15.18;;;0.60;99.90;;;;;;5027876;28;20193;-73
2022/02/12 02:37:35;;;;;;;28.15;14.90;;;0.50;99.90;;;;;;5027969;28;20216;-73
2022/02/12 02:40:24;;;;;;;32.33;14.98;;;0.50;99.90;;;;;;5030383;28;20356;-73
2022/02/12 02:43:10;;;;;;;26.35;14.65;;;0.50;99.90;;;;;;5028830;28;20221;-72
2022/02/12 02:45:56;;;;;;;24.42;15.25;;;0.60;99.90;;;;;;5030763;28;20264;-73
2022/02/12 02:48:42;;;;;;;17.15;12.20;;;0.60;99.90;;;;;;5027488;28;20558;-72
2022/02/12 02:57:40;;;;;;;21.98;13.32;;;0.60;99.90;;;;;;5029513;28;20232;-75
2022/02/12 03:00:26;;;;;;;23.13;13.48;;;0.50;99.90;;;;;;5025194;28;20804;-76
2022/02/12 03:03:11;;;;;;;19.15;13.20;;;0.50;99.90;;;;;;5025529;28;20212;-74
2022/02/12 03:05:58;;;;;;;23.00;12.38;;;0.50;99.90;;;;;;5033761;28;20212;-74
2022/02/12 03:08:44;;;;;;;24.85;13.65;;;0.40;99.90;;;;;;5029122;28;20203;-74
2022/02/12 03:11:30;;;;;;;20.60;12.75;;;0.30;99.90;;;;;;5034622;28;20232;-74
2022/02/12 03:14:17;;;;;;;22.52;13.32;;;0.20;99.90;;;;;;5027451;28;20212;-74
2022/02/12 03:17:03;;;;;;;21.05;12.15;;;0.10;99.90;;;;;;5034485;28;20697;-74
2022/02/12 03:19:48;;;;;;;28.85;14.55;;;0.10;99.90;;;;;;5035815;28;20197;-74
2022/02/12 03:22:34;;;;;;;16.42;11.82;;;0.10;99.90;;;;;;5032028;28;20737;-74
2022/02/12 03:25:20;;;;;;;22.05;12.02;;;0.00;99.90;;;;;;5037888;28;20200;-74
2022/02/12 03:28:06;;;;;;;23.83;12.15;;;-0.10;99.90;;;;;;5037332;28;20208;-74
2022/02/12 03:30:53;;;;;;;25.25;12.15;;;-0.20;99.90;;;;;;5029660;28;20224;-74
2022/02/12 03:33:39;;;;;;;29.85;12.65;;;-0.20;99.90;;;;;;5031492;28;20206;-74
2022/02/12 03:36:25;;;;;;;22.98;12.85;;;-0.20;99.90;;;;;;5027169;28;21078;-74
2022/02/12 03:39:11;;;;;;;20.92;12.18;;;-0.10;99.90;;;;;;5025825;28;20202;-73
2022/02/12 03:41:56;;;;;;;20.60;12.18;;;-0.10;99.90;;;;;;5028760;28;20221;-74
2022/02/12 03:44:43;;;;;;;20.23;13.20;;;-0.20;99.90;;;;;;5034546;28;22125;-74
2022/02/12 03:47:30;;;;;;;20.92;11.90;;;-0.20;99.90;;;;;;5036948;28;20292;-74
2022/02/12 03:50:16;;;;;;;19.75;11.77;;;-0.30;99.90;;;;;;5038215;28;20205;-74
2022/02/12 03:53:03;;;;;;;35.42;13.60;;;-0.30;99.90;;;;;;5031516;28;20612;-74
2022/02/12 03:55:50;;;;;;;19.17;11.80;;;-0.20;99.90;;;;;;5035950;28;20667;-74
2022/02/12 03:58:36;;;;;;;20.08;12.15;;;-0.20;99.90;;;;;;5027455;28;20194;-73
2022/02/12 04:01:21;;;;;;;20.98;12.98;;;-0.20;99.90;;;;;;5030186;28;20233;-75
2022/02/12 04:04:08;;;;;;;23.83;12.10;;;-0.20;99.90;;;;;;5034933;28;20268;-74
2022/02/12 04:06:53;;;;;;;17.75;11.80;;;-0.20;99.90;;;;;;5032449;28;20201;-74
2022/02/12 04:09:39;;;;;;;16.13;10.48;;;-0.30;99.90;;;;;;5035786;28;20209;-74
2022/02/12 04:12:25;;;;;;;21.00;12.68;;;-0.30;99.90;;;;;;5026980;28;20207;-74
2022/02/12 04:15:11;;;;;;;15.75;10.60;;;-0.30;99.90;;;;;;5027104;28;20208;-74
2022/02/12 04:17:57;;;;;;;17.33;11.57;;;-0.30;99.90;;;;;;5028035;28;20216;-74
2022/02/12 04:20:44;;;;;;;22.35;11.07;;;-0.30;99.90;;;;;;5033632;28;20228;-74
2022/02/12 04:23:29;;;;;;;16.17;10.43;;;-0.40;99.90;;;;;;5030408;28;20208;-74
2022/02/12 04:26:15;;;;;;;18.27;11.00;;;-0.50;99.90;;;;;;5027241;28;20209;-74
2022/02/12 04:29:01;;;;;;;23.95;10.73;;;-0.40;99.90;;;;;;5033674;28;20706;-74
2022/02/12 04:31:47;;;;;;;23.20;12.15;;;-0.50;99.90;;;;;;5026346;28;20218;-74
2022/02/12 04:34:32;;;;;;;17.10;11.30;;;-0.50;99.90;;;;;;5032836;28;20733;-74
2022/02/12 04:37:22;;;;;;;15.68;10.38;;;-0.40;99.90;;;;;;5023489;28;20293;-74
2022/02/12 04:40:08;;;;;;;16.60;11.40;;;-0.40;99.90;;;;;;5033282;28;20197;-74
2022/02/12 04:42:54;;;;;;;14.05;10.13;;;-0.40;99.90;;;;;;5031443;28;20213;-74
2022/02/12 04:45:39;;;;;;;15.57;9.18;;;-0.30;99.90;;;;;;5029111;28;20198;-74
2022/02/12 04:48:25;;;;;;;13.73;9.35;;;-0.40;99.90;;;;;;5032666;28;20197;-74
2022/02/12 04:51:10;;;;;;;21.08;11.30;;;-0.50;99.90;;;;;;5027687;28;20284;-74
2022/02/12 04:53:59;;;;;;;20.27;10.75;;;-0.50;99.90;;;;;;5031662;28;20197;-74
2022/02/12 04:56:44;;;;;;;14.38;9.85;;;-0.50;99.90;;;;;;5027163;28;20679;-73
2022/02/12 04:59:30;;;;;;;21.17;10.27;;;-0.50;99.90;;;;;;5031953;28;20569;-74
2022/02/12 05:02:15;;;;;;;16.35;9.35;;;-0.50;99.90;;;;;;5032220;28;20227;-73
2022/02/12 05:05:01;;;;;;;15.77;9.05;;;-0.50;99.90;;;;;;5040842;28;20219;-74
2022/02/12 05:07:46;;;;;;;13.18;8.23;;;-0.50;99.90;;;;;;5025661;28;20205;-74
2022/02/12 05:10:33;;;;;;;24.25;9.15;;;-0.50;99.90;;;;;;5026634;28;20224;-74
2022/02/12 05:13:19;;;;;;;19.02;11.65;;;-0.50;99.90;;;;;;5033362;28;20951;-74
2022/02/12 05:16:06;;;;;;;15.38;9.00;;;-0.60;99.90;;;;;;5031715;28;20213;-74
2022/02/12 05:18:52;;;;;;;15.98;8.82;;;-0.50;99.90;;;;;;5031051;28;20215;-75
2022/02/12 05:21:40;;;;;;;11.07;7.75;;;-0.60;99.90;;;;;;5025773;28;20807;-74
2022/02/12 05:24:26;;;;;;;14.77;8.73;;;-0.60;99.90;;;;;;5032623;28;20217;-75
2022/02/12 05:27:13;;;;;;;11.70;8.25;;;-0.60;99.90;;;;;;5031508;28;20223;-74
2022/02/12 05:29:58;;;;;;;22.63;9.73;;;-0.60;99.90;;;;;;5026476;28;20225;-74
2022/02/12 05:32:44;;;;;;;15.60;9.60;;;-0.60;99.90;;;;;;5029796;28;20732;-74
2022/02/12 05:35:30;;;;;;;17.58;8.07;;;-0.60;99.90;;;;;;5032821;28;20240;-74
2022/02/12 05:38:15;;;;;;;15.63;8.88;;;-0.70;99.90;;;;;;5028842;28;20205;-74
2022/02/12 05:41:01;;;;;;;13.90;9.02;;;-0.70;99.90;;;;;;5025859;28;20279;-74
2022/02/12 05:43:48;;;;;;;11.68;8.35;;;-0.80;99.90;;;;;;5029903;28;20209;-73
2022/02/12 05:46:34;;;;;;;18.08;6.97;;;-0.80;99.90;;;;;;5031897;28;20279;-74
2022/02/12 05:49:20;;;;;;;16.17;8.25;;;-0.80;99.90;;;;;;5024971;28;20217;-74
2022/02/12 05:52:06;;;;;;;16.85;8.50;;;-0.90;99.90;;;;;;5026507;28;20218;-75
2022/02/12 05:54:52;;;;;;;17.30;8.48;;;-0.80;99.90;;;;;;5026550;28;20209;-74
2022/02/12 05:57:37;;;;;;;15.40;8.48;;;-0.70;99.90;;;;;;5032800;28;20687;-74
2022/02/12 06:00:24;;;;;;;17.80;7.50;;;-0.70;99.90;;;;;;5023577;28;20692;-74
2022/02/12 06:03:10;;;;;;;22.90;8.90;;;-0.70;99.90;;;;;;5031825;28;20218;-75
2022/02/12 06:05:55;;;;;;;20.10;8.75;;;-0.80;99.90;;;;;;5038260;28;20681;-74
2022/02/12 06:08:41;;;;;;;10.70;7.50;;;-0.80;99.90;;;;;;5028685;28;20379;-74
2022/02/12 06:11:27;;;;;;;10.35;6.88;;;-0.90;99.90;;;;;;5029075;28;20717;-74
2022/02/12 06:14:12;;;;;;;10.85;7.63;;;-0.90;99.90;;;;;;5026895;28;20248;-74
2022/02/12 06:17:00;;;;;;;16.95;7.72;;;-0.80;99.90;;;;;;5038214;28;20223;-74
2022/02/12 06:19:46;;;;;;;15.32;7.35;;;-0.70;99.90;;;;;;5023032;28;20331;-74
2022/02/12 06:22:32;;;;;;;14.75;7.05;;;-0.70;99.90;;;;;;5031783;28;20815;-74
2022/02/12 06:25:18;;;;;;;12.07;6.55;;;-0.80;99.90;;;;;;5034672;28;20205;-74
2022/02/12 06:28:04;;;;;;;17.25;7.88;;;-0.80;99.90;;;;;;5026931;28;20213;-74
2022/02/12 06:30:50;;;;;;;11.80;7.07;;;-0.80;99.90;;;;;;5028140;28;20496;-74
2022/02/12 06:33:37;;;;;;;15.60;6.70;;;-0.80;99.90;;;;;;5031438;28;20206;-75
2022/02/12 06:36:23;;;;;;;15.02;7.68;;;-0.90;99.90;;;;;;5029619;28;20228;-74
2022/02/12 06:39:08;;;;;;;14.43;7.93;;;-0.90;99.90;;;;;;5021119;28;20204;-73
2022/02/12 06:41:54;;;;;;;15.40;6.88;;;-0.90;99.90;;;;;;5036789;28;20706;-74
2022/02/12 06:44:40;;;;;;;9.73;6.45;;;-0.90;99.90;;;;;;5028871;28;20227;-74
2022/02/12 06:47:26;;;;;;;16.35;7.57;;;-1.00;99.90;;;;;;5037672;28;20263;-74
2022/02/12 06:50:12;;;;;;;15.77;6.40;;;-1.10;99.90;;;;;;5030255;28;20706;-74
2022/02/12 06:52:59;;;;;;;14.35;6.45;;;-1.10;99.90;;;;;;5031194;28;20213;-74
2022/02/12 06:55:45;;;;;;;21.45;8.18;;;-1.10;99.90;;;;;;5040881;28;20197;-74
2022/02/12 06:58:31;;;;;;;15.55;8.25;;;-1.10;99.90;;;;;;5031602;28;20220;-74
2022/02/12 07:01:16;;;;;;;17.23;7.88;;;-1.10;99.90;;;;;;5033215;28;20299;-74
2022/02/12 07:04:02;;;;;;;13.57;6.90;;;-1.10;99.90;;;;;;5030799;28;20194;-74
2022/02/12 07:06:49;;;;;;;17.83;7.03;;;-1.10;99.90;;;;;;5028548;28;20411;-74
2022/02/12 07:09:34;;;;;;;22.73;7.13;;;-1.00;99.90;;;;;;5031497;28;20308;-74
2022/02/12 07:12:20;;;;;;;16.30;9.20;;;-0.90;99.90;;;;;;5030561;28;20240;-74
2022/02/12 07:15:07;;;;;;;28.33;13.45;;;-0.90;99.90;;;;;;5031463;28;20205;-73
2022/02/12 07:17:53;;;;;;;31.77;14.43;;;-0.90;99.90;;;;;;5028293;28;20228;-74
2022/02/12 07:20:39;;;;;;;25.90;11.85;;;-0.90;99.90;;;;;;5034470;28;20230;-74
2022/02/12 07:23:26;;;;;;;24.90;13.65;;;-0.80;99.90;;;;;;5033418;28;20205;-74
2022/02/12 07:26:12;;;;;;;25.73;12.07;;;-0.80;99.90;;;;;;5034889;28;20747;-74
2022/02/12 07:28:58;;;;;;;31.70;14.05;;;-0.70;99.90;;;;;;5027183;28;20685;-74
2022/02/12 07:31:43;;;;;;;30.75;15.18;;;-0.80;99.90;;;;;;5031172;28;20589;-74
2022/02/12 07:34:29;;;;;;;23.50;12.52;;;-0.70;99.90;;;;;;5035671;28;20234;-74
2022/02/12 07:37:15;;;;;;;21.05;8.40;;;-0.60;99.90;;;;;;5032917;28;20300;-74
2022/02/12 07:40:02;;;;;;;13.45;7.28;;;-0.50;99.90;;;;;;5028964;28;20248;-74
2022/02/12 07:42:49;;;;;;;12.40;6.60;;;-0.60;99.90;;;;;;5033966;28;21512;-74
2022/02/12 07:45:34;;;;;;;14.43;6.68;;;-0.50;99.90;;;;;;5034365;28;20208;-74
2022/02/12 07:48:20;;;;;;;21.20;11.20;;;-0.50;99.90;;;;;;5029176;28;20199;-74
2022/02/12 07:51:07;;;;;;;20.77;7.00;;;-0.40;99.90;;;;;;5030500;28;20225;-74
2022/02/12 07:53:52;;;;;;;8.35;5.78;;;-0.40;99.90;;;;;;5029313;28;20253;-74
2022/02/12 07:56:40;;;;;;;11.88;5.50;;;-0.30;99.90;;;;;;5033155;28;20560;-74
2022/02/12 07:59:25;;;;;;;9.57;5.75;;;-0.20;99.90;;;;;;5023983;28;20210;-74
2022/02/12 08:02:11;;;;;;;14.35;5.43;;;0.00;99.90;;;;;;5030196;28;20445;-73
2022/02/12 08:04:56;;;;;;;8.95;5.97;;;0.20;99.90;;;;;;5036384;28;20359;-75
2022/02/12 08:07:42;;;;;;;15.30;5.47;;;0.30;99.90;;;;;;5033701;28;20206;-75
2022/02/12 08:13:32;;;;;;;8.27;4.22;;;0.70;99.90;;;;;;5033241;28;20244;-75
2022/02/12 08:16:19;;;;;;;9.75;4.50;;;0.70;99.90;;;;;;5027740;28;20276;-74
2022/02/12 08:19:04;;;;;;;11.30;5.25;;;0.90;99.90;;;;;;5031947;28;20208;-75
2022/02/12 08:21:51;;;;;;;8.35;4.10;;;1.00;99.90;;;;;;5033141;28;20296;-74
2022/02/12 08:24:36;;;;;;;13.25;3.97;;;1.20;99.90;;;;;;5040088;28;20272;-75
2022/02/12 08:27:27;;;;;;;6.05;3.58;;;1.30;99.90;;;;;;5023252;28;20214;-74
2022/02/12 08:30:14;;;;;;;11.35;3.95;;;1.40;99.90;;;;;;5031719;28;20201;-75
2022/02/12 08:33:00;;;;;;;10.90;4.18;;;1.60;99.90;;;;;;5033058;28;20194;-74
2022/02/12 08:35:45;;;;;;;9.35;3.90;;;1.70;99.90;;;;;;5031070;28;20197;-75
2022/02/12 08:38:31;;;;;;;11.80;4.18;;;1.80;99.90;;;;;;5028317;28;20965;-75
2022/02/12 08:41:16;;;;;;;12.10;4.72;;;1.90;99.90;;;;;;5034544;28;20818;-75
2022/02/12 08:44:02;;;;;;;6.40;3.33;;;2.00;99.90;;;;;;5030801;28;20263;-75
2022/02/12 08:46:49;;;;;;;11.10;4.72;;;2.20;99.90;;;;;;5029422;28;20202;-75
2022/02/12 08:49:34;;;;;;;13.18;4.00;;;2.30;99.90;;;;;;5030851;28;20201;-75
2022/02/12 08:52:20;;;;;;;14.40;4.43;;;2.50;99.90;;;;;;5032513;28;20225;-75
2022/02/12 08:55:06;;;;;;;11.60;4.30;;;2.50;99.90;;;;;;5026272;28;20778;-75
2022/02/12 08:57:52;;;;;;;10.18;5.93;;;2.60;99.90;;;;;;5024354;28;20264;-75
2022/02/12 09:00:37;;;;;;;16.48;5.20;;;2.70;99.90;;;;;;5032326;28;20343;-75
2022/02/12 09:03:24;;;;;;;19.70;5.28;;;2.90;99.90;;;;;;5032823;28;20670;-75
2022/02/12 09:06:10;;;;;;;8.10;4.00;;;3.00;99.90;;;;;;5032074;28;20276;-75
2022/02/12 09:08:58;;;;;;;11.45;3.95;;;3.20;99.90;;;;;;5030496;28;20324;-75
2022/02/12 09:11:45;;;;;;;5.32;3.92;;;3.40;99.90;;;;;;5032289;28;20709;-75
2022/02/12 09:14:31;;;;;;;7.35;3.47;;;3.50;99.90;;;;;;5029621;28;20201;-75
2022/02/12 09:17:17;;;;;;;10.82;4.07;;;3.60;99.90;;;;;;5023961;28;20288;-75
2022/02/12 09:20:05;;;;;;;13.52;3.85;;;3.70;99.90;;;;;;5029331;28;20198;-75
2022/02/12 09:22:51;;;;;;;7.55;3.63;;;3.80;99.90;;;;;;5030086;28;20221;-75
2022/02/12 09:25:36;;;;;;;8.20;3.72;;;4.00;99.90;;;;;;5031085;28;20208;-73
2022/02/12 09:28:22;;;;;;;9.90;3.20;;;4.10;99.90;;;;;;5026912;28;20206;-75
2022/02/12 09:31:08;;;;;;;5.68;3.60;;;4.20;99.90;;;;;;5028750;28;20265;-74
2022/02/12 09:33:54;;;;;;;11.63;2.95;;;4.30;99.90;;;;;;5029148;28;20250;-73
2022/02/12 09:36:41;;;;;;;6.10;3.20;;;4.50;99.90;;;;;;5027036;28;20197;-75
2022/02/12 09:39:26;;;;;;;6.70;2.70;;;4.70;99.90;;;;;;5029550;28;20682;-75
2022/02/12 09:42:12;;;;;;;11.68;2.83;;;4.80;99.90;;;;;;5030612;28;20226;-74
2022/02/12 09:44:58;;;;;;;8.45;3.00;;;5.10;99.90;;;;;;5038551;28;20209;-75
2022/02/12 09:47:48;;;;;;;8.88;2.50;;;5.20;99.90;;;;;;5027493;28;20197;-75
2022/02/12 09:50:35;;;;;;;9.05;2.75;;;5.40;99.90;;;;;;5027113;28;20718;-75
2022/02/12 09:53:22;;;;;;;5.23;2.63;;;5.60;99.90;;;;;;5028504;28;20203;-72
2022/02/12 09:56:08;;;;;;;9.77;3.03;;;5.70;99.90;;;;;;5028275;28;20474;-73
2022/02/12 09:58:54;;;;;;;4.83;2.30;;;5.90;99.90;;;;;;5025957;28;20441;-73
2022/02/12 10:01:40;;;;;;;6.82;2.40;;;6.10;99.90;;;;;;5026149;28;20464;-73
2022/02/12 10:04:26;;;;;;;12.10;2.50;;;6.30;99.90;;;;;;5027437;28;21781;-73
2022/02/12 10:07:25;;;;;;;3.80;1.90;;;6.50;99.90;;;;;;5026498;28;20947;-73
2022/02/12 10:10:13;;;;;;;6.83;2.07;;;6.60;99.90;;;;;;5031529;28;20809;-73
2022/02/12 10:13:13;;;;;;;5.23;2.40;;;6.80;99.90;;;;;;5025174;28;20442;-74
2022/02/12 10:15:59;;;;;;;6.37;2.37;;;6.70;99.90;;;;;;5025104;28;20544;-73
2022/02/12 10:18:45;;;;;;;6.47;2.40;;;6.80;99.90;;;;;;5029910;28;20449;-73
2022/02/12 10:21:31;;;;;;;9.07;2.90;;;6.90;99.90;;;;;;5026470;28;20468;-73
2022/02/12 10:24:20;;;;;;;10.13;3.80;;;7.10;99.90;;;;;;5027919;28;20576;-74
2022/02/12 10:27:07;;;;;;;4.37;2.00;;;7.30;99.90;;;;;;5028332;28;20447;-72
2022/02/12 10:29:54;;;;;;;9.10;2.43;;;7.50;99.90;;;;;;5030396;28;20530;-74
2022/02/12 10:32:41;;;;;;;4.83;2.00;;;7.70;99.90;;;;;;5029355;28;20450;-74
2022/02/12 10:35:27;;;;;;;7.57;2.50;;;7.90;99.90;;;;;;5030350;28;20446;-73
2022/02/12 10:38:16;;;;;;;5.03;2.20;;;8.00;99.90;;;;;;5026337;28;20974;-73
2022/02/12 10:41:07;;;;;;;12.33;3.23;;;8.00;99.90;;;;;;5030102;28;20617;-73
2022/02/12 10:43:54;;;;;;;4.77;2.30;;;8.00;99.90;;;;;;5027606;28;20482;-73
2022/02/12 10:46:40;;;;;;;6.87;2.97;;;7.90;99.90;;;;;;5023721;28;21042;-73
2022/02/12 10:49:26;;;;;;;12.13;2.63;;;8.00;99.90;;;;;;5032438;28;20491;-73
2022/02/12 10:52:12;;;;;;;9.20;3.10;;;8.10;99.90;;;;;;5036884;28;20434;-72
2022/02/12 10:54:58;;;;;;;9.57;2.50;;;8.30;99.90;;;;;;5023832;28;20490;-73
2022/02/12 10:57:43;;;;;;;7.50;2.40;;;8.40;99.90;;;;;;5032552;28;20500;-73
2022/02/12 11:00:32;;;;;;;7.13;2.27;;;8.50;96.10;;;;;;5030541;28;20570;-73
2022/02/12 11:03:20;;;;;;;4.80;2.03;;;8.60;99.10;;;;;;5034086;28;20471;-73
2022/02/12 11:06:06;;;;;;;6.63;1.80;;;8.70;99.60;;;;;;5028900;28;20438;-74
2022/02/12 11:08:52;;;;;;;7.77;2.90;;;8.70;98.00;;;;;;5034415;28;20496;-73
2022/02/12 11:11:39;;;;;;;10.13;2.90;;;8.80;94.60;;;;;;5025179;28;20446;-73
2022/02/12 11:14:25;;;;;;;8.47;2.60;;;8.90;92.50;;;;;;5032172;28;21239;-74
2022/02/12 11:17:17;;;;;;;8.03;2.53;;;9.00;92.50;;;;;;5028982;28;20919;-75
2022/02/12 11:20:03;;;;;;;11.10;1.70;;;9.00;91.20;;;;;;5030326;28;20534;-73
2022/02/12 11:22:52;;;;;;;6.63;2.57;;;9.10;92.00;;;;;;5029625;28;20421;-72
2022/02/12 11:25:39;;;;;;;5.60;1.83;;;9.00;90.90;;;;;;5021928;28;20455;-73
2022/02/12 11:28:29;;;;;;;8.00;2.60;;;8.90;91.30;;;;;;5028873;28;20505;-73
2022/02/12 11:31:20;;;;;;;7.37;2.93;;;8.80;85.20;;;;;;5028002;28;20958;-72
2022/02/12 11:34:10;;;;;;;4.20;2.40;;;8.80;84.10;;;;;;5030753;28;20460;-73
2022/02/12 11:37:13;;;;;;;7.13;2.57;;;8.80;84.10;;;;;;5032565;28;20501;-73
2022/02/12 11:40:13;;;;;;;6.23;2.30;;;8.80;84.10;;;;;;5028754;28;20426;-72
2022/02/12 11:43:01;;;;;;;5.60;2.53;;;8.80;83.50;;;;;;5029872;28;20438;-72
2022/02/12 11:45:47;;;;;;;4.97;2.50;;;8.70;78.70;;;;;;5026762;28;20417;-70
2022/02/12 11:48:36;;;;;;;4.97;2.07;;;8.80;81.00;;;;;;5030972;28;20520;-72
2022/02/12 11:51:31;;;;;;;5.60;2.40;;;8.80;79.40;;;;;;5030935;28;20633;-72
2022/02/12 11:54:56;;;;;;;7.30;2.60;;;8.90;83.20;;;;;;5024251;28;20468;-72
2022/02/12 11:57:43;;;;;;;10.27;3.10;;;9.10;77.80;;;;;;5027255;28;20434;-72
2022/02/12 12:00:37;;;;;;;4.07;2.50;;;9.30;74.80;;;;;;5031089;28;20451;-72
2022/02/12 12:03:23;;;;;;;12.87;2.80;;;9.50;71.20;;;;;;5036726;28;20537;-72
2022/02/12 12:06:23;;;;;;;10.00;2.50;;;9.30;68.70;;;;;;5040130;28;20421;-73
2022/02/12 12:09:10;;;;;;;11.03;2.70;;;9.30;72.50;;;;;;5029682;28;20922;-73
2022/02/12 12:12:15;;;;;;;6.50;2.63;;;9.30;72.30;;;;;;5035829;28;20437;-72
2022/02/12 12:15:26;;;;;;;3.87;2.30;;;9.30;70.30;;;;;;5034147;28;20979;-73
2022/02/12 12:18:12;;;;;;;6.53;2.80;;;9.30;68.80;;;;;;5033137;28;20521;-72
2022/02/12 12:20:57;;;;;;;5.23;2.20;;;9.40;67.60;;;;;;5037123;28;20491;-72
2022/02/12 12:23:54;;;;;;;4.83;2.20;;;9.50;63.10;;;;;;5030143;28;20468;-72
2022/02/12 12:26:46;;;;;;;4.33;2.10;;;9.60;64.90;;;;;;5031366;28;20454;-72
2022/02/12 12:32:36;;;;;;;4.77;2.10;;;9.80;58.70;;;;;;5028245;28;20449;-72
2022/02/12 12:35:22;;;;;;;7.77;2.73;;;9.90;56.90;;;;;;5038983;28;20401;-72
2022/02/12 12:38:10;;;;;;;5.20;1.77;;;10.00;57.00;;;;;;5035015;28;20476;-73
2022/02/12 12:40:57;;;;;;;9.60;2.47;;;10.00;57.10;;;;;;5029833;28;21007;-72
2022/02/12 12:43:43;;;;;;;6.83;2.07;;;10.10;57.40;;;;;;5027158;28;20598;-72
2022/02/12 12:46:29;;;;;;;6.13;1.73;;;10.20;56.00;;;;;;5036050;28;20424;-72
2022/02/12 12:49:30;;;;;;;5.20;1.93;;;10.20;52.70;;;;;;5031416;28;20465;-73
2022/02/12 12:52:23;;;;;;;4.13;1.90;;;10.30;53.50;;;;;;5036422;28;20544;-72
2022/02/12 12:55:11;;;;;;;10.97;1.70;;;10.40;49.10;;;;;;5031161;28;20415;-72
2022/02/12 12:57:58;;;;;;;3.63;1.70;;;10.50;49.10;;;;;;5040529;28;20505;-72
2022/02/12 13:00:44;;;;;;;3.90;1.87;;;10.60;50.00;;;;;;5030560;28;20466;-72
2022/02/12 13:03:32;;;;;;;5.83;2.40;;;10.60;47.10;;;;;;5038995;28;20522;-72
2022/02/12 13:06:17;;;;;;;2.60;1.60;;;10.60;48.00;;;;;;5035855;28;20411;-72
2022/02/12 13:09:03;;;;;;;5.23;1.53;;;10.80;46.20;;;;;;5029796;28;20782;-73
2022/02/12 13:11:49;;;;;;;3.60;1.63;;;10.80;45.20;;;;;;5033349;28;20437;-72
2022/02/12 13:14:46;;;;;;;5.43;1.80;;;10.90;43.60;;;;;;5031703;28;20423;-72
2022/02/12 13:17:33;;;;;;;4.83;1.97;;;10.90;43.20;;;;;;5034092;28;20427;-72
2022/02/12 13:20:21;;;;;;;4.30;1.50;;;10.90;41.10;;;;;;5028409;28;20446;-73
2022/02/12 13:23:08;;;;;;;7.70;2.00;;;10.90;41.70;;;;;;5030413;28;20405;-72
2022/02/12 13:25:56;;;;;;;4.57;2.00;;;11.00;42.20;;;;;;5030862;28;20435;-72
2022/02/12 13:28:51;;;;;;;4.93;2.33;;;11.10;43.50;;;;;;5030681;28;20473;-72
2022/02/12 13:31:43;;;;;;;3.67;1.63;;;11.20;42.10;;;;;;5031927;28;20823;-72
2022/02/12 13:34:30;;;;;;;4.30;2.23;;;11.30;41.70;;;;;;5031495;28;20914;-72
2022/02/12 13:37:16;;;;;;;2.47;1.70;;;11.20;40.30;;;;;;5031109;28;20932;-72
2022/02/12 13:40:04;;;;;;;3.73;2.20;;;11.20;41.70;;;;;;5032980;28;20814;-73
2022/02/12 13:42:51;;;;;;;5.53;1.97;;;11.20;42.60;;;;;;5035632;28;20439;-72
2022/02/12 13:45:38;;;;;;;3.73;1.90;;;11.10;43.10;;;;;;5031336;28;20834;-72
2022/02/12 13:48:27;;;;;;;4.57;1.90;;;11.20;41.80;;;;;;5027721;28;20421;-73
2022/02/12 13:51:15;;;;;;;11.40;2.30;;;11.20;42.70;;;;;;5030712;28;20463;-72
2022/02/12 13:54:12;;;;;;;4.77;2.03;;;11.10;42.50;;;;;;5029922;28;20531;-72
2022/02/12 13:56:59;;;;;;;4.00;2.40;;;11.00;42.50;;;;;;5028919;28;20561;-72
2022/02/12 13:59:45;;;;;;;4.77;1.90;;;10.80;40.60;;;;;;5026689;28;20485;-72
2022/02/12 14:02:30;;;;;;;6.30;3.33;;;10.70;41.90;;;;;;5031962;28;20440;-72
2022/02/12 14:05:18;;;;;;;11.20;3.90;;;10.70;43.40;;;;;;5029207;28;20477;-73
2022/02/12 14:08:04;;;;;;;6.50;3.13;;;10.60;43.00;;;;;;5026493;28;20417;-72
2022/02/12 14:10:49;;;;;;;5.07;2.60;;;10.50;45.50;;;;;;5027320;28;20482;-72
2022/02/12 14:13:35;;;;;;;7.47;2.20;;;10.40;45.60;;;;;;5031022;28;20421;-72
2022/02/12 14:16:22;;;;;;;5.23;2.23;;;10.30;47.50;;;;;;5026992;28;20430;-72
2022/02/12 14:19:07;;;;;;;4.63;1.80;;;10.20;50.90;;;;;;5029878;28;20452;-73
2022/02/12 14:21:54;;;;;;;6.00;3.40;;;10.10;46.50;;;;;;5025686;28;20565;-72
2022/02/12 14:24:40;;;;;;;5.00;2.70;;;10.00;50.30;;;;;;5027996;28;20843;-72
2022/02/12 14:27:26;;;;;;;5.00;3.40;;;9.90;52.50;;;;;;5027799;28;20784;-72
2022/02/12 14:30:12;;;;;;;9.77;6.47;;;9.70;52.00;;;;;;5028947;28;20414;-73
2022/02/12 14:32:58;;;;;;;5.87;3.40;;;9.70;54.80;;;;;;5029183;28;20444;-72
2022/02/12 14:35:49;;;;;;;5.27;3.37;;;9.50;52.60;;;;;;5027626;28;20443;-72
2022/02/12 14:38:36;;;;;;;4.13;2.80;;;9.40;51.40;;;;;;5019110;28;20455;-72